Time;durP1;ratioP1;P1;durP2;ratioP2;P2;SDS_P1;SDS_P2;PMS_P1;PMS_P2;Temp;Humidity;BMP_temperature;BMP_pressure;BME280_temperature;BME280_humidity;BME280_pressure;Samples;Min_cycle;Max_cycle;Signal;HPM_P1;HPM_P2
2023/05/12 00:01:33;;;;;;;1.50;1.30;;;23.40;44.60;;;;;;5073904;28;20420;-55
2023/05/12 00:04:00;;;;;;;1.42;1.33;;;23.40;44.60;;;;;;5076215;28;20040;-55
2023/05/12 00:06:27;;;;;;;1.58;1.48;;;23.40;44.60;;;;;;5074993;28;20082;-55
2023/05/12 00:08:55;;;;;;;2.40;1.40;;;23.40;44.60;;;;;;5073751;28;20041;-54
2023/05/12 00:11:22;;;;;;;1.52;1.42;;;23.40;44.60;;;;;;5075561;28;20128;-56
2023/05/12 00:13:49;;;;;;;2.83;1.42;;;23.30;44.50;;;;;;5075526;28;20062;-56
2023/05/12 00:16:17;;;;;;;1.70;1.60;;;23.40;44.60;;;;;;5074795;28;20101;-55
2023/05/12 00:18:44;;;;;;;1.02;1.02;;;23.40;44.60;;;;;;5075932;28;20370;-55
2023/05/12 00:21:12;;;;;;;1.73;1.63;;;23.40;44.60;;;;;;5075761;28;20053;-56
2023/05/12 00:23:39;;;;;;;3.17;2.28;;;23.40;44.60;;;;;;5075703;28;20076;-56
2023/05/12 00:26:06;;;;;;;1.92;1.23;;;23.40;44.60;;;;;;5075223;28;20084;-55
2023/05/12 00:28:34;;;;;;;1.30;1.20;;;23.40;44.60;;;;;;5075380;28;20122;-56
2023/05/12 00:31:02;;;;;;;1.38;1.27;;;23.40;44.60;;;;;;5075569;28;20058;-55
2023/05/12 00:33:30;;;;;;;1.90;1.30;;;23.40;45.10;;;;;;5074809;28;20485;-55
2023/05/12 00:36:00;;;;;;;1.60;1.50;;;23.40;44.60;;;;;;5074703;28;20132;-56
2023/05/12 00:38:27;;;;;;;1.67;1.57;;;23.40;44.60;;;;;;5076015;28;20049;-54
2023/05/12 00:40:54;;;;;;;1.38;1.27;;;23.30;44.50;;;;;;5074483;28;20281;-55
2023/05/12 00:43:21;;;;;;;1.63;1.52;;;23.30;44.50;;;;;;5073238;28;20553;-54
2023/05/12 00:45:48;;;;;;;1.38;1.27;;;23.30;44.50;;;;;;5075087;28;20053;-56
2023/05/12 00:48:16;;;;;;;1.58;1.33;;;23.30;44.50;;;;;;5074845;28;20052;-55
2023/05/12 00:50:44;;;;;;;1.52;1.42;;;23.40;44.50;;;;;;5074501;28;20045;-55
2023/05/12 00:53:12;;;;;;;1.52;1.05;;;23.30;44.50;;;;;;5075803;28;20059;-55
2023/05/12 00:55:40;;;;;;;1.20;1.08;;;23.40;44.50;;;;;;5074105;28;20087;-56
2023/05/12 00:58:07;;;;;;;1.63;1.23;;;23.40;44.50;;;;;;5075120;28;20044;-55
2023/05/12 01:00:34;;;;;;;1.13;1.13;;;23.30;44.50;;;;;;5073736;28;20044;-55
2023/05/12 01:03:02;;;;;;;1.60;1.27;;;23.30;44.50;;;;;;5074819;28;20054;-56
2023/05/12 01:05:46;;;;;;;1.30;1.20;;;23.30;44.50;;;;;;5074995;28;20504;-54
2023/05/12 01:08:15;;;;;;;1.30;1.20;;;23.40;44.50;;;;;;5072974;28;20132;-55
2023/05/12 01:10:43;;;;;;;1.30;1.20;;;23.30;44.50;;;;;;5074240;28;20071;-55
2023/05/12 01:13:11;;;;;;;1.58;1.33;;;23.30;44.60;;;;;;5074383;28;20072;-54
2023/05/12 01:15:42;;;;;;;1.65;1.55;;;23.30;44.60;;;;;;5074891;28;20067;-56
2023/05/12 01:18:11;;;;;;;1.30;1.20;;;23.30;44.70;;;;;;5074349;28;20436;-55
2023/05/12 01:20:41;;;;;;;1.50;1.33;;;23.30;44.80;;;;;;5073130;28;20428;-56
2023/05/12 01:23:09;;;;;;;;;;;23.20;44.80;;;;;;5075250;28;20147;-55
2023/05/12 01:25:38;;;;;;;1.20;1.10;;;23.20;44.80;;;;;;5074169;28;20011;-56
2023/05/12 01:28:06;;;;;;;1.17;1.15;;;23.20;44.90;;;;;;5089517;28;20139;-56
2023/05/12 01:30:36;;;;;;;1.10;1.10;;;23.20;44.90;;;;;;5074009;28;20132;-57
2023/05/12 01:33:03;;;;;;;1.35;1.10;;;23.20;44.90;;;;;;5074178;28;20135;-56
2023/05/12 01:35:31;;;;;;;1.30;1.20;;;23.20;44.90;;;;;;5073558;28;20106;-56
2023/05/12 01:37:58;;;;;;;1.10;1.08;;;23.20;44.90;;;;;;5073029;28;20135;-55
2023/05/12 01:40:25;;;;;;;1.17;1.08;;;23.10;44.90;;;;;;5073061;28;20044;-54
2023/05/12 01:42:54;;;;;;;1.20;1.15;;;23.10;44.90;;;;;;5072381;28;20055;-56
2023/05/12 01:45:21;;;;;;;2.47;1.13;;;23.20;45.00;;;;;;5073673;28;20072;-56
2023/05/12 01:47:48;;;;;;;1.20;1.20;;;23.20;45.00;;;;;;5074086;28;20055;-56
2023/05/12 01:50:15;;;;;;;1.38;1.25;;;23.10;44.90;;;;;;5073748;28;20050;-55
2023/05/12 01:52:44;;;;;;;1.05;1.05;;;23.20;44.90;;;;;;5072899;28;20052;-56
2023/05/12 01:55:11;;;;;;;1.00;1.00;;;23.10;44.80;;;;;;5073562;28;20186;-54
2023/05/12 01:57:38;;;;;;;0.98;0.98;;;23.20;44.80;;;;;;5073885;28;20052;-56
2023/05/12 02:00:06;;;;;;;1.25;1.17;;;23.20;44.80;;;;;;5071889;28;20501;-56
2023/05/12 02:02:33;;;;;;;1.00;1.00;;;23.20;44.90;;;;;;5072654;28;20131;-55
2023/05/12 02:05:01;;;;;;;1.23;1.10;;;23.20;44.80;;;;;;5072320;28;20056;-56
2023/05/12 02:07:29;;;;;;;0.98;0.98;;;23.20;44.80;;;;;;5071466;28;20091;-56
2023/05/12 02:09:56;;;;;;;1.15;1.10;;;23.20;44.80;;;;;;5072967;28;20091;-57
2023/05/12 02:12:23;;;;;;;1.38;1.20;;;23.20;45.30;;;;;;5073609;28;20059;-54
2023/05/12 02:14:50;;;;;;;1.40;1.30;;;23.20;44.70;;;;;;5073200;28;20127;-55
2023/05/12 02:17:17;;;;;;;0.85;0.85;;;23.20;44.70;;;;;;5072047;28;20059;-54
2023/05/12 02:19:45;;;;;;;1.23;1.13;;;23.30;44.70;;;;;;5072798;28;20106;-55
2023/05/12 02:22:12;;;;;;;0.82;0.82;;;23.30;44.60;;;;;;5073318;28;20059;-55
2023/05/12 02:24:39;;;;;;;1.20;1.10;;;23.30;44.60;;;;;;5072245;28;20090;-56
2023/05/12 02:27:07;;;;;;;1.02;1.00;;;23.30;44.60;;;;;;5073104;28;20503;-57
2023/05/12 02:29:35;;;;;;;0.70;0.70;;;23.30;44.50;;;;;;5071761;28;20497;-57
2023/05/12 02:32:03;;;;;;;1.08;0.98;;;23.30;44.50;;;;;;5073559;28;20556;-54
2023/05/12 02:34:31;;;;;;;1.10;1.00;;;23.30;44.50;;;;;;5071990;28;20083;-55
2023/05/12 02:36:58;;;;;;;0.80;0.80;;;23.30;44.50;;;;;;5073351;28;20080;-55
2023/05/12 02:39:25;;;;;;;0.98;0.98;;;23.30;44.50;;;;;;5072068;28;20408;-55
2023/05/12 02:41:52;;;;;;;0.90;0.90;;;23.30;44.50;;;;;;5073212;28;20044;-56
2023/05/12 02:44:21;;;;;;;0.80;0.80;;;23.30;44.50;;;;;;5072522;28;20044;-56
2023/05/12 02:46:48;;;;;;;1.00;1.00;;;23.30;44.60;;;;;;5072628;28;20154;-55
2023/05/12 02:49:15;;;;;;;1.15;1.10;;;23.20;44.50;;;;;;5073647;28;20055;-55
2023/05/12 02:51:42;;;;;;;1.20;1.10;;;23.30;44.60;;;;;;5072659;28;20049;-56
2023/05/12 02:54:10;;;;;;;1.25;1.25;;;23.30;45.10;;;;;;5073214;28;20076;-56
2023/05/12 02:56:37;;;;;;;1.08;1.05;;;23.20;44.50;;;;;;5072017;28;20056;-55
2023/05/12 02:59:04;;;;;;;0.88;0.88;;;23.20;44.50;;;;;;5072315;28;20110;-56
2023/05/12 03:01:31;;;;;;;1.02;1.02;;;23.20;44.50;;;;;;5072584;28;20074;-56
2023/05/12 03:03:58;;;;;;;0.85;0.85;;;23.30;44.60;;;;;;5073024;28;20040;-56
2023/05/12 03:06:25;;;;;;;0.75;0.75;;;23.30;44.60;;;;;;5072919;28;20055;-56
2023/05/12 03:08:54;;;;;;;0.88;0.88;;;23.20;44.50;;;;;;5072079;28;20051;-55
2023/05/12 03:11:21;;;;;;;1.20;1.00;;;23.20;44.50;;;;;;5070879;28;20053;-53
2023/05/12 03:13:49;;;;;;;0.80;0.80;;;23.20;44.50;;;;;;5073325;28;20048;-56
2023/05/12 03:16:17;;;;;;;1.10;1.00;;;23.20;44.50;;;;;;5072160;28;20076;-56
2023/05/12 03:18:45;;;;;;;0.80;0.80;;;23.30;44.60;;;;;;5072987;28;20062;-56
2023/05/12 03:21:13;;;;;;;1.88;0.70;;;23.30;44.50;;;;;;5071378;28;20045;-56
2023/05/12 03:23:40;;;;;;;1.20;1.05;;;23.30;44.50;;;;;;5072568;28;20549;-56
2023/05/12 03:26:08;;;;;;;1.35;1.00;;;23.30;44.50;;;;;;5070890;28;20080;-55
2023/05/12 03:28:35;;;;;;;0.77;0.77;;;23.30;44.50;;;;;;5072359;28;20143;-54
2023/05/12 03:31:02;;;;;;;1.00;1.00;;;23.30;44.50;;;;;;5072251;28;20098;-55
2023/05/12 03:33:30;;;;;;;0.75;0.75;;;23.30;44.50;;;;;;5073132;28;20052;-56
2023/05/12 03:35:57;;;;;;;0.80;0.75;;;23.20;44.50;;;;;;5075297;28;20052;-56
2023/05/12 03:38:24;;;;;;;1.20;1.10;;;23.20;44.50;;;;;;5076818;28;20048;-55
2023/05/12 03:41:03;;;;;;;0.98;0.98;;;23.20;44.60;;;;;;5076786;28;20151;-56
2023/05/12 03:43:30;;;;;;;0.80;0.80;;;23.10;44.60;;;;;;5076014;28;20497;-57
2023/05/12 03:45:58;;;;;;;0.80;0.80;;;23.20;44.70;;;;;;5075638;28;20644;-56
2023/05/12 03:48:25;;;;;;;0.60;0.60;;;23.20;44.70;;;;;;5076108;28;20051;-54
2023/05/12 03:50:52;;;;;;;1.05;1.02;;;23.10;44.70;;;;;;5077698;28;20071;-56
2023/05/12 03:53:19;;;;;;;0.80;0.80;;;23.10;44.80;;;;;;5076219;28;20041;-56
2023/05/12 03:55:46;;;;;;;0.80;0.80;;;23.10;44.80;;;;;;5074514;28;20135;-55
2023/05/12 03:58:14;;;;;;;0.52;0.52;;;23.10;44.80;;;;;;5075453;28;20048;-56
2023/05/12 04:00:41;;;;;;;0.80;0.80;;;23.10;44.80;;;;;;5077985;28;20072;-56
2023/05/12 04:03:10;;;;;;;0.75;0.75;;;23.10;44.80;;;;;;5079807;28;20489;-57
2023/05/12 04:05:38;;;;;;;0.60;0.60;;;23.10;44.80;;;;;;5076283;28;20548;-54
2023/05/12 04:08:05;;;;;;;0.88;0.88;;;23.10;44.80;;;;;;5070834;28;20048;-56
2023/05/12 04:10:36;;;;;;;0.70;0.70;;;23.10;44.80;;;;;;5067910;28;20404;-56
2023/05/12 04:13:03;;;;;;;0.70;0.70;;;23.10;44.80;;;;;;5075055;28;20052;-54
2023/05/12 04:15:31;;;;;;;0.63;0.63;;;23.10;44.80;;;;;;5074908;28;20045;-56
2023/05/12 04:17:58;;;;;;;0.82;0.82;;;23.10;44.70;;;;;;5076075;28;20071;-55
2023/05/12 04:20:25;;;;;;;0.82;0.82;;;23.10;44.70;;;;;;5074490;28;20045;-54
2023/05/12 04:22:52;;;;;;;0.80;0.80;;;23.10;44.70;;;;;;5074700;28;20047;-55
2023/05/12 04:25:20;;;;;;;0.60;0.57;;;23.10;44.70;;;;;;5075974;28;20052;-56
2023/05/12 04:27:47;;;;;;;0.70;0.70;;;23.10;44.70;;;;;;5074397;28;20655;-55
2023/05/12 04:30:15;;;;;;;0.85;0.85;;;23.10;44.60;;;;;;5072518;28;20051;-56
2023/05/12 04:32:43;;;;;;;1.00;1.00;;;23.10;44.60;;;;;;5075404;28;20136;-55
2023/05/12 04:35:10;;;;;;;1.50;0.80;;;23.20;44.60;;;;;;5074402;28;20072;-55
2023/05/12 04:37:37;;;;;;;1.05;0.95;;;23.20;44.60;;;;;;5074763;28;20118;-55
2023/05/12 04:40:06;;;;;;;1.23;1.15;;;23.20;44.50;;;;;;5073536;28;20484;-56
2023/05/12 04:42:34;;;;;;;1.90;1.40;;;23.20;44.40;;;;;;5072776;28;20040;-56
2023/05/12 04:45:01;;;;;;;1.15;1.15;;;23.20;44.40;;;;;;5071884;28;20079;-55
2023/05/12 04:47:28;;;;;;;1.15;1.05;;;23.20;44.40;;;;;;5072956;28;20052;-56
2023/05/12 04:49:55;;;;;;;1.15;0.93;;;23.20;44.30;;;;;;5074275;28;20051;-55
2023/05/12 04:52:23;;;;;;;1.17;1.13;;;23.20;44.30;;;;;;5073118;28;20055;-56
2023/05/12 04:54:51;;;;;;;1.17;1.13;;;23.20;44.30;;;;;;5071944;28;20109;-55
2023/05/12 04:57:18;;;;;;;1.48;1.38;;;23.20;44.30;;;;;;5073268;28;20088;-55
2023/05/12 04:59:45;;;;;;;1.23;1.15;;;23.20;44.30;;;;;;5071312;28;20471;-55
2023/05/12 05:02:12;;;;;;;1.38;1.20;;;23.20;44.90;;;;;;5073250;28;20546;-55
2023/05/12 05:04:40;;;;;;;1.33;1.23;;;23.20;44.30;;;;;;5073744;28;20512;-55
2023/05/12 05:07:07;;;;;;;1.40;1.30;;;23.20;44.40;;;;;;5069491;28;20075;-56
2023/05/12 05:09:35;;;;;;;0.93;0.90;;;23.10;44.30;;;;;;5069752;28;20048;-57
2023/05/12 05:12:02;;;;;;;1.23;1.17;;;23.20;44.40;;;;;;5070589;28;20095;-58
2023/05/12 05:14:29;;;;;;;1.27;1.27;;;23.20;45.30;;;;;;5070047;28;20079;-56
2023/05/12 05:16:57;;;;;;;1.90;1.30;;;23.10;44.90;;;;;;5067609;28;20072;-56
2023/05/12 05:19:24;;;;;;;1.60;1.50;;;23.10;44.90;;;;;;5070017;28;20093;-57
2023/05/12 05:22:12;;;;;;;1.88;1.15;;;23.10;45.10;;;;;;5066923;28;20609;-56
2023/05/12 05:24:39;;;;;;;1.58;1.48;;;23.10;45.20;;;;;;5064662;28;20045;-56
2023/05/12 05:27:06;;;;;;;1.30;1.20;;;23.10;45.30;;;;;;5063675;28;20090;-54
2023/05/12 05:29:33;;;;;;;1.80;1.58;;;23.20;45.30;;;;;;5059143;28;20558;-54
2023/05/12 05:32:01;;;;;;;1.20;1.20;;;23.20;45.40;;;;;;5063686;28;20052;-57
2023/05/12 05:34:28;;;;;;;1.27;1.27;;;23.20;45.50;;;;;;5065134;28;20108;-54
2023/05/12 05:36:56;;;;;;;1.75;1.65;;;23.30;45.50;;;;;;5068512;28;20043;-58
2023/05/12 05:39:23;;;;;;;1.80;1.70;;;23.20;45.50;;;;;;5066053;28;20064;-57
2023/05/12 05:41:50;;;;;;;1.58;1.50;;;23.30;45.50;;;;;;5063663;28;20040;-58
2023/05/12 05:44:18;;;;;;;2.55;2.25;;;23.30;45.50;;;;;;5059174;28;20419;-57
2023/05/12 05:46:45;;;;;;;2.25;1.60;;;23.20;45.30;;;;;;5059847;28;20094;-57
2023/05/12 05:49:12;;;;;;;1.70;1.60;;;23.30;45.30;;;;;;5059281;28;20570;-59
2023/05/12 05:51:39;;;;;;;2.10;1.90;;;23.30;45.20;;;;;;5044603;28;20044;-59
2023/05/12 05:54:06;;;;;;;2.13;1.90;;;23.30;45.10;;;;;;5061062;28;20578;-58
2023/05/12 05:56:35;;;;;;;3.15;1.73;;;23.30;45.10;;;;;;5059381;28;20140;-59
2023/05/12 05:59:03;;;;;;;2.40;2.20;;;23.30;45.00;;;;;;5063351;28;20053;-56
2023/05/12 06:01:31;;;;;;;1.48;1.40;;;23.30;45.00;;;;;;5059702;28;20072;-51
2023/05/12 06:03:59;;;;;;;3.05;2.08;;;23.30;45.00;;;;;;5062209;28;20053;-53
2023/05/12 06:06:27;;;;;;;1.80;1.70;;;23.30;45.00;;;;;;5055505;28;20799;-54
2023/05/12 06:08:55;;;;;;;1.80;1.70;;;23.30;45.10;;;;;;5061027;28;20060;-59
2023/05/12 06:11:22;;;;;;;2.58;2.38;;;23.30;45.10;;;;;;5059824;28;20048;-56
2023/05/12 06:13:49;;;;;;;2.10;1.92;;;23.30;45.10;;;;;;5061764;28;20051;-54
2023/05/12 06:16:17;;;;;;;3.35;2.03;;;23.40;45.30;;;;;;5059597;28;20230;-49
2023/05/12 06:18:44;;;;;;;1.65;1.55;;;23.40;45.30;;;;;;5058334;28;20044;-57
2023/05/12 06:21:11;;;;;;;2.00;1.80;;;23.40;45.30;;;;;;5059494;28;20177;-58
2023/05/12 06:23:39;;;;;;;2.15;1.95;;;23.40;45.30;;;;;;5057090;28;20101;-55
2023/05/12 06:26:06;;;;;;;2.47;2.35;;;23.40;45.30;;;;;;5054867;28;20083;-56
2023/05/12 06:28:33;;;;;;;3.00;1.92;;;23.40;45.30;;;;;;5061626;28;20131;-57
2023/05/12 06:31:01;;;;;;;2.95;2.20;;;23.50;45.20;;;;;;5058958;28;20048;-56
2023/05/12 06:33:29;;;;;;;3.30;2.30;;;23.50;45.20;;;;;;5064026;28;20143;-53
2023/05/12 06:35:57;;;;;;;1.92;1.80;;;23.50;45.20;;;;;;5063685;28;20139;-53
2023/05/12 06:38:24;;;;;;;3.63;2.13;;;23.50;45.20;;;;;;5056138;28;20462;-50
2023/05/12 06:40:51;;;;;;;2.22;2.05;;;23.50;45.20;;;;;;5056096;28;20041;-56
2023/05/12 06:43:19;;;;;;;2.60;2.40;;;23.60;45.20;;;;;;5060642;28;20438;-56
2023/05/12 06:45:46;;;;;;;2.55;2.35;;;23.60;45.20;;;;;;5060845;28;20519;-56
2023/05/12 06:48:14;;;;;;;2.47;2.28;;;23.70;45.30;;;;;;5061885;28;20051;-55
2023/05/12 06:50:41;;;;;;;2.50;2.30;;;23.70;45.40;;;;;;5064110;28;20084;-57
2023/05/12 06:53:09;;;;;;;2.05;1.83;;;23.70;45.50;;;;;;5059248;28;20083;-57
2023/05/12 06:55:37;;;;;;;2.50;2.30;;;23.80;45.60;;;;;;5064326;28;20036;-57
2023/05/12 06:58:05;;;;;;;2.15;1.95;;;23.90;45.50;;;;;;5061419;28;20048;-54
2023/05/12 07:00:32;;;;;;;3.30;2.30;;;23.90;45.50;;;;;;5063000;28;20052;-54
2023/05/12 07:02:59;;;;;;;4.47;2.47;;;23.90;45.20;;;;;;5055245;28;20138;-54
2023/05/12 07:05:26;;;;;;;4.38;1.92;;;24.00;45.20;;;;;;5053440;28;20553;-56
2023/05/12 07:07:54;;;;;;;3.75;2.05;;;24.00;45.00;;;;;;5061704;28;20125;-53
2023/05/12 07:10:21;;;;;;;2.30;2.10;;;24.00;45.00;;;;;;5060424;28;20718;-54
2023/05/12 07:12:49;;;;;;;3.10;2.20;;;24.10;44.90;;;;;;5062130;28;20102;-57
2023/05/12 07:15:16;;;;;;;5.13;2.10;;;24.10;44.70;;;;;;5063705;28;20124;-55
2023/05/12 07:17:44;;;;;;;4.28;2.42;;;24.20;44.80;;;;;;5063485;28;20110;-57
2023/05/12 07:20:11;;;;;;;2.50;2.10;;;24.20;44.80;;;;;;5063901;28;20059;-58
2023/05/12 07:22:40;;;;;;;5.38;2.03;;;24.30;44.60;;;;;;5058811;28;20509;-59
2023/05/12 07:25:07;;;;;;;2.45;2.13;;;24.30;44.50;;;;;;5058366;28;20132;-59
2023/05/12 07:27:35;;;;;;;2.35;2.15;;;24.30;44.40;;;;;;5064134;28;20562;-59
2023/05/12 07:30:03;;;;;;;2.67;1.77;;;24.30;44.20;;;;;;5061406;28;20138;-58
2023/05/12 07:32:31;;;;;;;3.00;2.45;;;24.40;44.20;;;;;;5055427;28;20053;-59
2023/05/12 07:34:58;;;;;;;2.78;2.40;;;24.40;44.10;;;;;;5057645;28;20449;-59
2023/05/12 07:37:25;;;;;;;3.38;2.90;;;24.40;44.20;;;;;;5062631;28;20475;-60
2023/05/12 07:39:53;;;;;;;2.50;2.25;;;24.40;44.30;;;;;;5060593;28;20056;-59
2023/05/12 07:42:21;;;;;;;7.25;2.22;;;24.40;44.40;;;;;;5063531;28;20262;-61
2023/05/12 07:44:48;;;;;;;5.55;2.67;;;24.40;44.40;;;;;;5060916;28;20052;-62
2023/05/12 07:47:16;;;;;;;2.10;2.00;;;24.40;44.50;;;;;;5072529;28;20056;-61
2023/05/12 07:49:43;;;;;;;6.88;3.03;;;24.40;44.50;;;;;;5061560;28;20155;-61
2023/05/12 07:52:10;;;;;;;5.03;2.47;;;24.40;44.30;;;;;;5060680;28;20048;-61
2023/05/12 07:54:38;;;;;;;3.47;2.15;;;24.40;44.30;;;;;;5060148;28;20048;-63
2023/05/12 07:57:05;;;;;;;2.90;2.60;;;24.40;44.30;;;;;;5064038;28;20041;-66
2023/05/12 07:59:33;;;;;;;2.85;2.35;;;24.40;44.40;;;;;;5062239;28;20484;-61
2023/05/12 08:02:00;;;;;;;2.85;2.65;;;24.50;44.20;;;;;;5055902;28;20052;-61
2023/05/12 08:04:27;;;;;;;4.55;2.25;;;24.50;44.20;;;;;;5061425;28;20044;-61
2023/05/12 08:06:54;;;;;;;3.05;1.85;;;24.50;44.10;;;;;;5059633;28;20549;-62
2023/05/12 08:09:22;;;;;;;2.65;2.42;;;24.50;44.10;;;;;;5056902;28;20133;-60
2023/05/12 08:11:49;;;;;;;2.40;2.20;;;24.60;44.10;;;;;;5060264;28;20049;-60
2023/05/12 08:14:17;;;;;;;2.80;2.60;;;24.60;43.90;;;;;;5060602;28;20079;-60
2023/05/12 08:16:45;;;;;;;5.32;2.28;;;24.60;43.70;;;;;;5058035;28;20041;-61
2023/05/12 08:19:13;;;;;;;3.08;2.78;;;24.60;43.70;;;;;;5059048;28;20546;-60
2023/05/12 08:21:40;;;;;;;3.83;2.67;;;24.70;43.70;;;;;;5061720;28;20076;-61
2023/05/12 08:24:08;;;;;;;3.53;2.65;;;24.70;43.70;;;;;;5061941;28;20134;-59
2023/05/12 08:26:35;;;;;;;3.25;2.78;;;24.70;43.60;;;;;;5059490;28;20052;-60
2023/05/12 08:29:03;;;;;;;2.88;2.40;;;24.70;43.60;;;;;;5066209;28;20487;-58
2023/05/12 08:31:31;;;;;;;2.60;2.22;;;24.70;43.60;;;;;;5070859;28;20058;-60
2023/05/12 08:33:58;;;;;;;2.58;2.47;;;24.80;43.70;;;;;;5061447;28;20135;-60
2023/05/12 08:36:38;;;;;;;2.70;2.50;;;24.80;43.70;;;;;;5062920;28;20097;-60
2023/05/12 08:39:10;;;;;;;3.25;2.85;;;24.80;43.70;;;;;;5059945;28;20080;-62
2023/05/12 08:42:08;;;;;;;3.10;2.83;;;24.80;43.70;;;;;;5055371;28;20053;-60
2023/05/12 08:44:37;;;;;;;7.28;2.30;;;24.80;43.80;;;;;;5061999;28;20109;-60
2023/05/12 08:47:08;;;;;;;5.53;3.22;;;24.90;43.80;;;;;;5060274;28;20711;-59
2023/05/12 08:49:38;;;;;;;2.78;2.58;;;24.90;43.70;;;;;;5057799;28;20131;-65
2023/05/12 08:52:06;;;;;;;2.55;2.45;;;24.90;43.60;;;;;;5059675;28;20072;-60
2023/05/12 08:54:36;;;;;;;2.92;2.70;;;24.90;43.60;;;;;;5059084;28;20139;-60
2023/05/12 08:57:20;;;;;;;3.60;2.75;;;25.00;43.60;;;;;;5060778;28;20052;-59
2023/05/12 08:59:48;;;;;;;4.17;2.57;;;25.00;43.30;;;;;;5066828;28;20056;-60
2023/05/12 09:02:17;;;;;;;5.28;2.85;;;25.10;43.00;;;;;;5060436;28;20654;-60
2023/05/12 09:04:47;;;;;;;2.45;2.33;;;25.10;43.30;;;;;;5057280;28;20143;-61
2023/05/12 09:07:15;;;;;;;2.37;2.27;;;25.10;43.30;;;;;;5065492;28;20044;-63
2023/05/12 09:09:45;;;;;;;2.92;2.67;;;25.20;43.20;;;;;;5064992;28;20053;-63
2023/05/12 09:12:16;;;;;;;2.47;2.28;;;25.20;43.00;;;;;;5065681;28;20102;-59
2023/05/12 09:14:45;;;;;;;4.40;2.75;;;25.20;43.00;;;;;;5068376;28;20440;-62
2023/05/12 09:17:13;;;;;;;3.35;2.90;;;25.20;42.80;;;;;;5065117;28;20105;-59
2023/05/12 09:19:40;;;;;;;2.63;2.42;;;25.20;42.70;;;;;;5063588;28;20060;-62
2023/05/12 09:22:13;;;;;;;2.95;2.75;;;25.20;42.60;;;;;;5066312;28;20084;-60
2023/05/12 09:24:40;;;;;;;2.70;2.50;;;25.20;42.60;;;;;;5066907;28;20150;-60
2023/05/12 09:27:10;;;;;;;2.75;2.55;;;25.20;42.60;;;;;;5065407;28;20044;-58
2023/05/12 09:29:47;;;;;;;3.08;2.75;;;25.20;42.60;;;;;;5062031;28;20500;-60
2023/05/12 09:32:34;;;;;;;2.72;2.45;;;25.20;42.70;;;;;;5064739;28;20044;-61
2023/05/12 09:35:05;;;;;;;6.75;2.58;;;25.20;42.80;;;;;;5062670;28;20055;-60
2023/05/12 09:37:33;;;;;;;2.88;2.67;;;25.20;42.80;;;;;;5066590;28;20509;-61
2023/05/12 09:40:03;;;;;;;3.30;2.38;;;25.20;42.70;;;;;;5065250;28;20059;-60
2023/05/12 09:42:33;;;;;;;2.97;2.70;;;25.20;42.70;;;;;;5070832;28;20052;-61
2023/05/12 09:45:05;;;;;;;3.40;2.33;;;25.30;42.70;;;;;;5065702;28;20056;-61
2023/05/12 09:47:37;;;;;;;3.28;2.83;;;25.30;42.80;;;;;;5064155;28;20389;-59
2023/05/12 09:50:07;;;;;;;2.55;2.38;;;25.30;42.80;;;;;;5065976;28;20047;-59
2023/05/12 09:52:38;;;;;;;3.25;2.67;;;25.20;42.80;;;;;;5059961;28;20056;-61
2023/05/12 09:55:08;;;;;;;3.03;2.70;;;25.30;42.90;;;;;;5064488;28;20080;-61
2023/05/12 09:57:40;;;;;;;4.07;2.78;;;25.30;42.70;;;;;;5063770;28;20047;-59
2023/05/12 10:00:18;;;;;;;3.97;2.45;;;25.30;42.80;;;;;;5063740;28;20052;-59
2023/05/12 10:03:15;;;;;;;2.88;2.58;;;25.30;42.70;;;;;;5061749;28;20055;-60
2023/05/12 10:05:49;;;;;;;2.95;2.67;;;25.30;43.10;;;;;;5045369;28;20041;-62
2023/05/12 10:08:23;;;;;;;2.42;2.25;;;25.40;42.60;;;;;;5060257;28;20083;-60
2023/05/12 10:10:52;;;;;;;2.50;2.30;;;25.40;42.60;;;;;;5065492;28;20097;-63
2023/05/12 10:13:21;;;;;;;3.33;3.05;;;25.40;42.50;;;;;;5065590;28;20128;-60
2023/05/12 10:15:50;;;;;;;3.65;3.10;;;25.40;42.40;;;;;;5066357;28;20481;-62
2023/05/12 10:18:18;;;;;;;3.13;2.80;;;25.40;42.50;;;;;;5067904;28;20480;-61
2023/05/12 10:20:46;;;;;;;4.75;2.85;;;25.40;42.20;;;;;;5067281;28;20052;-61
2023/05/12 10:23:16;;;;;;;7.85;2.58;;;25.30;42.30;;;;;;5067116;28;20080;-60
2023/05/12 10:25:44;;;;;;;2.53;2.33;;;25.20;42.40;;;;;;5063674;28;20048;-62
2023/05/12 10:28:11;;;;;;;5.38;2.78;;;25.20;42.60;;;;;;5067830;28;20863;-60
2023/05/12 10:30:40;;;;;;;5.30;2.50;;;25.20;42.70;;;;;;5063635;28;20048;-60
2023/05/12 10:33:08;;;;;;;4.53;3.15;;;25.20;42.60;;;;;;5068477;28;20468;-60
2023/05/12 10:35:36;;;;;;;5.70;2.70;;;25.20;42.60;;;;;;5067345;28;20041;-59
2023/05/12 10:38:09;;;;;;;4.45;2.58;;;25.30;42.70;;;;;;5066248;28;20479;-59
2023/05/12 10:40:36;;;;;;;3.05;2.75;;;25.20;42.50;;;;;;5048703;28;20500;-60
2023/05/12 10:43:04;;;;;;;3.00;2.80;;;25.30;42.60;;;;;;5057173;28;20124;-59
2023/05/12 10:45:36;;;;;;;7.38;2.72;;;25.30;42.50;;;;;;5063392;28;20076;-59
2023/05/12 10:48:05;;;;;;;5.93;3.08;;;25.30;42.40;;;;;;5059294;28;20041;-59
2023/05/12 10:50:33;;;;;;;3.58;2.58;;;25.30;42.50;;;;;;5065064;28;20443;-58
2023/05/12 10:53:00;;;;;;;5.10;2.92;;;25.30;42.50;;;;;;5059560;28;20061;-59
2023/05/12 10:55:33;;;;;;;5.07;3.25;;;25.30;42.60;;;;;;5061073;28;20083;-59
2023/05/12 10:58:10;;;;;;;4.72;2.40;;;25.30;42.60;;;;;;5060232;28;20760;-59
2023/05/12 11:00:44;;;;;;;3.28;2.95;;;25.30;42.60;;;;;;5061786;28;20110;-58
2023/05/12 11:03:15;;;;;;;4.40;2.55;;;25.30;42.70;;;;;;5060049;28;20045;-59
2023/05/12 11:05:46;;;;;;;3.72;2.80;;;25.40;42.70;;;;;;5058949;28;20459;-58
2023/05/12 11:08:16;;;;;;;4.78;2.83;;;25.40;42.70;;;;;;5076424;28;20561;-59
2023/05/12 11:10:45;;;;;;;5.50;3.38;;;25.40;42.60;;;;;;5058898;28;20074;-57
2023/05/12 11:13:13;;;;;;;6.32;3.20;;;25.50;42.60;;;;;;5057957;28;20378;-57
2023/05/12 11:15:43;;;;;;;2.80;2.60;;;25.50;42.80;;;;;;5056193;28;20482;-57
2023/05/12 11:18:11;;;;;;;;;;;25.60;42.90;;;;;;5058723;28;20041;-58
2023/05/12 11:20:39;;;;;;;5.40;3.08;;;25.60;42.90;;;;;;5060332;28;19928;-59
2023/05/12 11:23:06;;;;;;;5.15;2.80;;;25.60;42.90;;;;;;5062069;28;20044;-57
2023/05/12 11:25:34;;;;;;;7.80;3.33;;;25.70;43.00;;;;;;5062890;28;20110;-58
2023/05/12 11:28:02;;;;;;;6.22;2.97;;;25.60;43.50;;;;;;5064109;28;20101;-60
2023/05/12 11:30:29;;;;;;;5.85;3.17;;;25.70;43.10;;;;;;5065708;28;20127;-57
2023/05/12 11:33:01;;;;;;;3.25;2.95;;;25.70;43.30;;;;;;5061602;28;20041;-58
2023/05/12 11:35:31;;;;;;;4.05;3.70;;;25.70;43.10;;;;;;5065330;28;20044;-57
2023/05/12 11:37:58;;;;;;;6.30;3.42;;;25.80;43.10;;;;;;5060673;28;20231;-58
2023/05/12 11:40:25;;;;;;;4.00;3.55;;;25.80;43.00;;;;;;5060697;28;20080;-58
2023/05/12 11:42:54;;;;;;;3.67;3.20;;;25.80;42.90;;;;;;5062617;28;20390;-58
2023/05/12 11:45:25;;;;;;;5.05;3.42;;;25.80;43.00;;;;;;5065699;28;20388;-59
2023/05/12 11:48:04;;;;;;;3.95;3.65;;;25.80;43.00;;;;;;5066517;28;20079;-56
2023/05/12 11:58:20;;;;;;;5.40;4.50;;;25.90;43.20;;;;;;5075923;28;20042;-61
2023/05/12 12:00:48;;;;;;;5.97;4.38;;;25.90;43.20;;;;;;5076744;28;20055;-63
2023/05/12 12:03:15;;;;;;;4.57;3.50;;;25.90;43.20;;;;;;5072642;28;20071;-63
2023/05/12 12:05:55;;;;;;;5.88;3.78;;;25.90;43.80;;;;;;5069045;28;20687;-59
2023/05/12 12:11:45;;;;;;;4.63;4.00;;;25.90;43.00;;;;;;5067927;28;19943;-59
2023/05/12 12:14:12;;;;;;;5.30;3.60;;;25.90;42.90;;;;;;5073259;28;20143;-63
2023/05/12 12:16:39;;;;;;;4.78;3.55;;;25.90;42.80;;;;;;5069691;28;20049;-59
2023/05/12 12:19:07;;;;;;;4.78;4.30;;;25.90;42.80;;;;;;5065767;28;20113;-62
2023/05/12 12:21:36;;;;;;;4.18;3.83;;;25.90;42.80;;;;;;5068375;28;20039;-63
2023/05/12 12:24:04;;;;;;;4.57;4.18;;;25.90;42.80;;;;;;5071766;28;20139;-63
2023/05/12 12:26:32;;;;;;;4.40;4.00;;;25.90;42.90;;;;;;5070996;28;20049;-63
2023/05/12 12:28:59;;;;;;;3.92;3.60;;;25.80;42.80;;;;;;5072042;28;20480;-63
2023/05/12 12:31:26;;;;;;;7.18;4.10;;;25.80;42.80;;;;;;5071351;28;20400;-63
2023/05/12 12:37:40;;;;;;;5.35;4.10;;;25.80;42.80;;;;;;5066339;28;20049;-59
2023/05/12 12:40:08;;;;;;;4.50;4.07;;;25.90;42.90;;;;;;5070465;28;20041;-59
2023/05/12 12:42:38;;;;;;;7.95;3.80;;;25.90;42.80;;;;;;5076191;28;20048;-59
2023/05/12 12:45:07;;;;;;;4.82;4.38;;;25.90;42.90;;;;;;5076391;28;20044;-63
2023/05/12 12:47:35;;;;;;;4.70;4.30;;;26.00;42.90;;;;;;5072702;28;20094;-62
2023/05/12 12:50:12;;;;;;;6.55;4.82;;;26.00;43.00;;;;;;5071770;28;20052;-63
2023/05/12 12:52:39;;;;;;;5.80;4.10;;;26.00;43.30;;;;;;5071583;28;20041;-63
2023/05/12 12:55:07;;;;;;;5.53;4.55;;;26.00;43.40;;;;;;5051920;28;20562;-63
2023/05/12 12:57:34;;;;;;;4.43;4.13;;;26.00;43.40;;;;;;5070536;28;20049;-63
2023/05/12 13:00:03;;;;;;;10.05;4.80;;;26.00;43.60;;;;;;5074266;28;20063;-59
2023/05/12 13:02:30;;;;;;;5.03;4.47;;;26.10;43.80;;;;;;5071101;28;20040;-63
2023/05/12 13:05:02;;;;;;;4.97;4.47;;;26.10;44.40;;;;;;5066939;28;20392;-64
2023/05/12 13:07:29;;;;;;;5.28;4.53;;;26.10;44.70;;;;;;5067100;28;20072;-63
2023/05/12 13:09:56;;;;;;;5.38;4.40;;;26.10;44.70;;;;;;5059803;28;20091;-62